SWYF weather

Public forecast

Using degrees Celsius for public forecast. Weather courtesy of forecast.io.

Closest aviation weather report (METAR) to Minas Empreendimentos Heliport

Report is more than 6 hours old.

Closest report is Carlos Prates Airport, 4.2 nm (7.8 km) E. Retrieved 2020/08/08 20:00 UTC (13 hours ago):

SBPR 082000Z 10012KT 9999 SCT035 23/10 Q1026

Closest aviation forecast (TAF) to Minas Empreendimentos Heliport

Forecast is more than 12 hours old.

Closest forecast is Pampulha - Carlos Drummond de Andrade Airport, 7.1 nm (13.2 km) ENE. Retrieved 2012/03/26 18:12 UTC (8 years ago):

TAF SBBH 261639Z 2618/2706 09005KT 9999 SCT030 TX28/2618Z TN20/2705Z PROB30 2619/2624 8000 TSRA BKN035 FEW045CB RMK PGG